createdAt,value
2019-05-10T00:01:09.245Z,15.70
2019-05-10T00:04:03.159Z,15.60
2019-05-10T00:06:56.293Z,15.50
2019-05-10T00:09:30.257Z,15.50
2019-05-10T00:12:06.500Z,15.50
2019-05-10T00:14:42.732Z,15.50
2019-05-10T00:17:19.181Z,15.50
2019-05-10T00:19:54.467Z,15.50
2019-05-10T00:22:29.594Z,15.50
2019-05-10T00:25:05.152Z,15.60
2019-05-10T00:27:40.507Z,15.80
2019-05-10T00:30:15.810Z,15.80
2019-05-10T00:32:51.552Z,16.00
2019-05-10T00:35:28.333Z,16.10
2019-05-10T00:38:03.830Z,16.10
2019-05-10T00:40:38.730Z,16.20
2019-05-10T00:43:15.332Z,16.30
2019-05-10T00:45:50.278Z,16.10
2019-05-10T00:48:25.400Z,16.10
2019-05-10T00:51:00.275Z,16.10
2019-05-10T00:53:36.031Z,16.10
2019-05-10T00:56:11.210Z,16.00
2019-05-10T00:58:46.687Z,16.00
2019-05-10T01:01:21.759Z,16.10
2019-05-10T01:03:56.977Z,16.30
2019-05-10T01:06:31.755Z,16.30
2019-05-10T01:09:08.613Z,16.40
2019-05-10T01:11:43.437Z,16.40
2019-05-10T01:14:19.983Z,16.50
2019-05-10T01:16:55.004Z,16.50
2019-05-10T01:19:49.444Z,16.50
2019-05-10T01:22:24.433Z,16.50
2019-05-10T01:24:59.728Z,16.40
2019-05-10T01:27:34.771Z,16.50
2019-05-10T01:30:11.154Z,16.50
2019-05-10T01:32:46.008Z,16.60
2019-05-10T01:35:21.147Z,16.60
2019-05-10T01:37:56.133Z,16.50
2019-05-10T01:40:31.381Z,16.40
2019-05-10T01:43:07.736Z,16.40
2019-05-10T01:45:43.409Z,16.40
2019-05-10T01:48:18.361Z,16.30
2019-05-10T01:50:53.638Z,16.20
2019-05-10T01:53:28.707Z,16.20
2019-05-10T01:56:10.693Z,16.10
2019-05-10T01:58:46.156Z,16.10
2019-05-10T02:01:21.392Z,16.00
2019-05-10T02:03:56.729Z,15.90
2019-05-10T02:06:32.187Z,15.90
2019-05-10T02:09:11.029Z,15.70
2019-05-10T02:11:46.467Z,15.60
2019-05-10T02:14:21.502Z,15.70
2019-05-10T02:16:57.320Z,15.60
2019-05-10T02:19:33.099Z,15.70
2019-05-10T02:22:08.849Z,15.70
2019-05-10T02:24:43.869Z,15.80
2019-05-10T02:27:19.830Z,15.90
2019-05-10T02:30:13.699Z,16.00
2019-05-10T02:32:49.073Z,16.00
2019-05-10T02:35:36.332Z,16.00
2019-05-10T02:38:11.428Z,16.00
2019-05-10T02:40:46.540Z,16.10
2019-05-10T02:43:22.032Z,16.10
2019-05-10T02:46:00.335Z,16.20
2019-05-10T02:48:36.665Z,16.30
2019-05-10T02:51:11.621Z,16.50
2019-05-10T02:53:47.075Z,16.50
2019-05-10T02:56:30.684Z,16.50
2019-05-10T02:59:00.302Z,16.50
2019-05-10T03:01:35.580Z,16.50
2019-05-10T03:04:11.539Z,16.60
2019-05-10T03:06:47.539Z,16.60
2019-05-10T03:09:23.494Z,16.70
2019-05-10T03:12:00.026Z,16.80
2019-05-10T03:14:37.153Z,16.90
2019-05-10T03:17:12.327Z,16.90
2019-05-10T03:19:48.425Z,17.00
2019-05-10T03:22:23.532Z,17.00
2019-05-10T03:25:00.280Z,16.90
2019-05-10T03:27:36.095Z,16.90
2019-05-10T03:30:11.353Z,17.00
2019-05-10T03:32:46.446Z,17.00
2019-05-10T03:35:21.677Z,17.00
2019-05-10T03:37:56.615Z,16.90
2019-05-10T03:40:31.841Z,16.90
2019-05-10T03:43:06.992Z,16.90
2019-05-10T03:45:42.311Z,16.90
2019-05-10T03:48:17.323Z,17.00
2019-05-10T03:50:52.944Z,17.00
2019-05-10T03:53:27.845Z,16.90
2019-05-10T03:56:03.045Z,17.00
2019-05-10T03:58:38.010Z,17.10
2019-05-10T04:01:15.866Z,17.10
2019-05-10T04:03:53.390Z,17.10
2019-05-10T04:06:31.294Z,17.00
2019-05-10T04:09:06.552Z,17.00
2019-05-10T04:11:41.685Z,17.00
2019-05-10T04:14:16.457Z,17.00
2019-05-10T04:16:52.159Z,17.00
2019-05-10T04:19:26.917Z,17.10
2019-05-10T04:22:02.725Z,17.20
2019-05-10T04:24:37.690Z,17.30
2019-05-10T04:27:30.611Z,17.30
2019-05-10T04:29:48.915Z,17.40
2019-05-10T04:32:24.422Z,17.60
2019-05-10T04:34:59.483Z,17.70
2019-05-10T04:37:34.422Z,17.90
2019-05-10T04:40:09.987Z,18.00
2019-05-10T04:42:45.048Z,18.30
2019-05-10T04:45:20.089Z,18.50
2019-05-10T04:47:55.455Z,18.50
2019-05-10T04:50:30.438Z,18.50
2019-05-10T04:53:05.948Z,18.60
2019-05-10T04:55:40.886Z,18.70
2019-05-10T04:58:16.187Z,18.90
2019-05-10T05:00:51.552Z,19.00
2019-05-10T05:03:27.406Z,19.10
2019-05-10T05:06:02.856Z,19.10
2019-05-10T05:08:38.258Z,19.10
2019-05-10T05:11:12.866Z,19.10
2019-05-10T05:13:47.977Z,19.00
2019-05-10T05:16:25.895Z,19.10
2019-05-10T05:19:01.061Z,19.20
2019-05-10T05:21:35.961Z,19.20
2019-05-10T05:24:16.740Z,19.20
2019-05-10T05:26:55.017Z,19.20
2019-05-10T05:29:30.181Z,19.10
2019-05-10T05:32:07.966Z,19.00
2019-05-10T05:34:41.501Z,18.90
2019-05-10T05:37:16.706Z,18.90
2019-05-10T05:39:52.183Z,18.90
2019-05-10T05:42:27.904Z,19.00
2019-05-10T05:45:04.022Z,19.00
2019-05-10T05:47:42.232Z,19.00
2019-05-10T05:50:16.437Z,19.00
2019-05-10T05:52:51.149Z,19.00
2019-05-10T05:55:30.722Z,19.00
2019-05-10T05:58:04.740Z,18.90
2019-05-10T06:00:48.025Z,18.80
2019-05-10T06:03:27.736Z,18.70
2019-05-10T06:05:59.408Z,18.70
2019-05-10T06:08:34.361Z,18.60
2019-05-10T06:11:29.912Z,18.60
2019-05-10T06:14:10.663Z,18.50
2019-05-10T06:16:45.274Z,18.30
2019-05-10T06:19:29.229Z,18.20
2019-05-10T06:21:58.123Z,18.10
2019-05-10T06:28:28.907Z,18.00
2019-05-10T06:31:01.898Z,18.00
2019-05-10T06:33:39.693Z,18.00
2019-05-10T06:36:13.578Z,17.90
2019-05-10T06:38:49.090Z,17.80
2019-05-10T06:41:23.760Z,17.70
2019-05-10T06:43:58.968Z,17.70
2019-05-10T06:46:53.036Z,17.60
2019-05-10T06:49:28.475Z,17.60
2019-05-10T06:52:03.331Z,17.50
2019-05-10T06:54:39.272Z,17.50
2019-05-10T06:57:17.436Z,17.40
2019-05-10T06:59:50.657Z,17.30
2019-05-10T07:02:31.752Z,17.30
2019-05-10T07:05:02.382Z,17.20
2019-05-10T07:07:45.359Z,17.20
2019-05-10T07:10:19.183Z,17.10
2019-05-10T07:12:50.923Z,17.10
2019-05-10T07:15:29.118Z,17.00
2019-05-10T07:18:03.961Z,16.90
2019-05-10T07:20:42.612Z,16.90
2019-05-10T07:23:18.368Z,16.80
2019-05-10T07:25:52.198Z,16.80
2019-05-10T07:28:30.126Z,16.70
2019-05-10T07:31:05.894Z,16.70
2019-05-10T07:33:41.298Z,16.70
2019-05-10T07:36:20.815Z,16.70
2019-05-10T07:38:53.367Z,16.70
2019-05-10T07:41:29.102Z,16.70
2019-05-10T07:44:07.811Z,16.70
2019-05-10T07:46:47.100Z,16.60
2019-05-10T07:49:17.266Z,16.60
2019-05-10T07:51:53.095Z,16.60
2019-05-10T07:54:28.160Z,16.50
2019-05-10T07:57:03.616Z,16.50
2019-05-10T07:59:50.140Z,16.40
2019-05-10T08:02:15.501Z,16.40
2019-05-10T08:05:13.816Z,16.30
2019-05-10T08:07:45.003Z,16.30
2019-05-10T08:10:21.422Z,16.30
2019-05-10T08:12:59.552Z,16.30
2019-05-10T08:15:34.994Z,16.30
2019-05-10T08:18:23.433Z,16.30
2019-05-10T08:21:02.292Z,16.30
2019-05-10T08:23:37.165Z,16.20
2019-05-10T08:26:19.831Z,16.20
2019-05-10T08:28:52.485Z,16.20
2019-05-10T08:31:26.344Z,16.10
2019-05-10T08:34:22.747Z,16.00
2019-05-10T08:36:55.996Z,15.90
2019-05-10T08:39:43.911Z,15.70
2019-05-10T08:42:29.409Z,15.60
2019-05-10T08:44:54.141Z,15.50
2019-05-10T08:47:27.657Z,15.40
2019-05-10T08:50:18.664Z,15.30
2019-05-10T08:52:37.486Z,15.10
2019-05-10T08:55:15.966Z,15.10
2019-05-10T08:57:54.806Z,15.00
2019-05-10T09:00:45.126Z,15.00
2019-05-10T09:03:09.801Z,14.90
2019-05-10T09:05:44.282Z,14.80
2019-05-10T09:08:19.989Z,14.80
2019-05-10T09:11:16.425Z,14.70
2019-05-10T09:13:53.189Z,14.60
2019-05-10T09:16:29.097Z,14.60
2019-05-10T09:19:04.304Z,14.60
2019-05-10T09:21:41.326Z,14.50
2019-05-10T09:24:15.257Z,14.50
2019-05-10T09:26:52.826Z,14.40
2019-05-10T09:29:27.363Z,14.40
2019-05-10T09:32:06.185Z,14.30
2019-05-10T09:34:42.411Z,14.30
2019-05-10T09:37:17.786Z,14.30
2019-05-10T09:40:04.100Z,14.20
2019-05-10T09:42:34.797Z,14.10
2019-05-10T09:45:05.413Z,14.10
2019-05-10T09:47:43.508Z,14.10
2019-05-10T09:50:16.924Z,14.10
2019-05-10T09:52:51.959Z,14.00
2019-05-10T09:55:28.034Z,14.00
2019-05-10T09:58:04.048Z,13.90
2019-05-10T10:00:39.524Z,13.90
2019-05-10T10:03:14.902Z,13.90
2019-05-10T10:05:54.974Z,13.90
2019-05-10T10:08:28.278Z,13.80
2019-05-10T10:11:14.241Z,13.90
2019-05-10T10:13:43.774Z,13.80
2019-05-10T10:16:18.977Z,13.80
2019-05-10T10:18:53.197Z,13.80
2019-05-10T10:21:35.030Z,13.70
2019-05-10T10:24:12.591Z,13.70
2019-05-10T10:26:40.876Z,13.70
2019-05-10T10:29:17.287Z,13.70
2019-05-10T10:31:55.715Z,13.70
2019-05-10T10:34:32.772Z,13.60
2019-05-10T10:37:07.833Z,13.60
2019-05-10T10:39:47.730Z,13.60
2019-05-10T10:42:22.282Z,13.60
2019-05-10T10:44:57.615Z,13.60
2019-05-10T10:47:32.560Z,13.70
2019-05-10T10:50:13.167Z,13.60
2019-05-10T10:53:07.743Z,13.60
2019-05-10T10:55:48.506Z,13.60
2019-05-10T10:58:18.910Z,13.60
2019-05-10T11:00:54.972Z,13.60
2019-05-10T11:03:30.935Z,13.60
2019-05-10T11:06:06.968Z,13.50
2019-05-10T11:09:01.917Z,13.60
2019-05-10T11:11:41.741Z,13.50
2019-05-10T11:14:14.642Z,13.50
2019-05-10T11:16:58.196Z,13.50
2019-05-10T11:19:31.689Z,13.50
2019-05-10T11:22:11.056Z,13.40
2019-05-10T11:24:51.754Z,13.40
2019-05-10T11:27:22.564Z,13.30
2019-05-10T11:29:57.233Z,13.30
2019-05-10T11:32:32.535Z,13.30
2019-05-10T11:35:11.992Z,13.30
2019-05-10T11:37:45.664Z,13.30
2019-05-10T11:40:30.393Z,13.30
2019-05-10T11:42:57.663Z,13.20
2019-05-10T11:45:41.961Z,13.20
2019-05-10T11:48:13.298Z,13.20
2019-05-10T11:50:54.451Z,13.20
2019-05-10T11:53:27.441Z,13.20
2019-05-10T11:56:07.913Z,13.20
2019-05-10T11:58:55.503Z,13.20
2019-05-10T12:01:41.510Z,13.20
2019-05-10T12:06:50.417Z,13.10
2019-05-10T12:09:25.971Z,13.00
2019-05-10T12:12:03.417Z,13.00
2019-05-10T12:14:46.084Z,13.00
2019-05-10T12:17:16.589Z,13.00
2019-05-10T12:19:56.391Z,12.90
2019-05-10T12:22:38.310Z,12.90
2019-05-10T12:25:27.162Z,12.80
2019-05-10T12:26:04.973Z,13.20
2019-05-10T12:27:47.095Z,12.80
2019-05-10T12:30:18.652Z,12.80
2019-05-10T12:32:56.263Z,12.70
2019-05-10T12:35:37.370Z,12.70
2019-05-10T12:38:07.434Z,12.70
2019-05-10T12:40:51.344Z,12.70
2019-05-10T12:43:25.476Z,12.70
2019-05-10T12:46:01.055Z,12.70
2019-05-10T12:48:36.513Z,12.60
2019-05-10T12:51:15.993Z,12.60
2019-05-10T12:53:49.855Z,12.70
2019-05-10T12:56:26.127Z,12.60
2019-05-10T12:59:01.199Z,12.60
2019-05-10T13:01:36.457Z,12.60
2019-05-10T13:04:14.727Z,12.50
2019-05-10T13:06:47.817Z,12.60
2019-05-10T13:09:36.078Z,12.50
2019-05-10T13:12:03.864Z,12.50
2019-05-10T13:14:40.352Z,12.40
2019-05-10T13:17:17.088Z,12.40
2019-05-10T13:19:52.811Z,12.40
2019-05-10T13:22:36.664Z,12.40
2019-05-10T13:25:06.438Z,12.40
2019-05-10T13:27:41.652Z,12.40
2019-05-10T13:30:17.030Z,12.40
2019-05-10T13:32:58.563Z,12.40
2019-05-10T13:35:28.582Z,12.40
2019-05-10T13:38:06.530Z,12.40
2019-05-10T13:40:45.427Z,12.40
2019-05-10T13:43:25.888Z,12.40
2019-05-10T13:45:53.342Z,12.40
2019-05-10T13:48:28.665Z,12.30
2019-05-10T13:51:03.493Z,12.30
2019-05-10T13:53:39.245Z,12.20
2019-05-10T13:56:14.207Z,12.20
2019-05-10T13:58:49.215Z,12.30
2019-05-10T14:01:30.576Z,12.20
2019-05-10T14:04:06.786Z,12.20
2019-05-10T14:06:41.737Z,12.20
2019-05-10T14:09:20.756Z,12.20
2019-05-10T14:11:53.426Z,12.20
2019-05-10T14:14:30.278Z,12.10
2019-05-10T14:17:05.187Z,12.00
2019-05-10T14:19:40.426Z,12.00
2019-05-10T14:22:16.289Z,12.00
2019-05-10T14:24:54.237Z,11.90
2019-05-10T14:27:29.732Z,11.90
2019-05-10T14:30:07.333Z,11.90
2019-05-10T14:32:40.067Z,11.90
2019-05-10T14:35:16.279Z,12.00
2019-05-10T14:37:51.363Z,11.90
2019-05-10T14:40:30.362Z,11.90
2019-05-10T14:43:02.935Z,11.80
2019-05-10T14:45:38.257Z,11.80
2019-05-10T14:48:13.126Z,11.80
2019-05-10T14:50:48.843Z,11.80
2019-05-10T14:53:25.511Z,11.80
2019-05-10T14:55:59.944Z,11.70
2019-05-10T14:58:34.811Z,11.70
2019-05-10T15:01:09.893Z,11.70
2019-05-10T15:03:58.854Z,11.70
2019-05-10T15:06:36.811Z,11.70
2019-05-10T15:09:20.552Z,11.60
2019-05-10T15:11:46.964Z,11.60
2019-05-10T15:14:21.937Z,11.50
2019-05-10T15:16:57.466Z,11.50
2019-05-10T15:19:32.399Z,11.50
2019-05-10T15:22:08.106Z,11.50
2019-05-10T15:24:42.774Z,11.50
2019-05-10T15:27:21.565Z,11.40
2019-05-10T15:29:58.565Z,11.30
2019-05-10T15:32:31.532Z,11.30
2019-05-10T15:35:07.954Z,11.40
2019-05-10T15:37:46.161Z,11.30
2019-05-10T15:40:18.822Z,11.40
2019-05-10T15:42:54.259Z,11.40
2019-05-10T15:45:29.604Z,11.40
2019-05-10T15:48:05.561Z,11.40
2019-05-10T15:50:41.163Z,11.40
2019-05-10T15:53:19.615Z,11.40
2019-05-10T15:55:52.716Z,11.40
2019-05-10T15:58:30.626Z,11.40
2019-05-10T16:01:05.149Z,11.40
2019-05-10T16:03:40.450Z,11.30
2019-05-10T16:06:15.416Z,11.40
2019-05-10T16:08:51.337Z,11.40
2019-05-10T16:11:26.193Z,11.40
2019-05-10T16:14:01.704Z,11.40
2019-05-10T16:16:37.681Z,11.40
2019-05-10T16:19:18.362Z,11.40
2019-05-10T16:21:52.273Z,11.40
2019-05-10T16:24:27.638Z,11.40
2019-05-10T16:27:01.926Z,11.40
2019-05-10T16:29:39.675Z,11.40
2019-05-10T16:32:13.174Z,11.40
2019-05-10T16:34:48.614Z,11.40
2019-05-10T16:37:23.728Z,11.40
2019-05-10T16:39:59.594Z,11.30
2019-05-10T16:42:35.803Z,11.30
2019-05-10T16:45:11.074Z,11.30
2019-05-10T16:48:05.819Z,11.30
2019-05-10T16:50:41.861Z,11.30
2019-05-10T16:53:16.918Z,11.30
2019-05-10T16:55:52.077Z,11.40
2019-05-10T16:58:26.876Z,11.40
2019-05-10T17:01:02.304Z,11.40
2019-05-10T17:03:37.270Z,11.40
2019-05-10T17:06:12.427Z,11.50
2019-05-10T17:08:48.586Z,11.50
2019-05-10T17:11:24.070Z,11.50
2019-05-10T17:13:58.829Z,11.50
2019-05-10T17:16:34.132Z,11.50
2019-05-10T17:19:09.081Z,11.50
2019-05-10T17:21:44.940Z,11.50
2019-05-10T17:24:23.996Z,11.50
2019-05-10T17:26:56.065Z,11.50
2019-05-10T17:29:30.876Z,11.40
2019-05-10T17:32:06.086Z,11.40
2019-05-10T17:34:40.824Z,11.40
2019-05-10T17:37:15.801Z,11.40
2019-05-10T17:39:53.474Z,11.40
2019-05-10T17:42:26.631Z,11.40
2019-05-10T17:45:14.403Z,11.40
2019-05-10T17:47:49.815Z,11.30
2019-05-10T17:50:24.666Z,11.30
2019-05-10T17:52:59.753Z,11.30
2019-05-10T17:55:34.546Z,11.30
2019-05-10T17:58:09.484Z,11.30
2019-05-10T18:00:44.199Z,11.30
2019-05-10T18:03:19.510Z,11.30
2019-05-10T18:05:54.438Z,11.30
2019-05-10T18:08:29.849Z,11.30
2019-05-10T18:11:06.163Z,11.30
2019-05-10T18:13:42.522Z,11.30
2019-05-10T18:16:17.389Z,11.30
2019-05-10T18:18:52.531Z,11.30
2019-05-10T18:21:27.689Z,11.30
2019-05-10T18:24:02.944Z,11.30
2019-05-10T18:26:39.583Z,11.30
2019-05-10T18:29:14.582Z,11.30
2019-05-10T18:31:56.066Z,11.30
2019-05-10T18:34:26.429Z,11.30
2019-05-10T18:37:01.691Z,11.30
2019-05-10T18:39:36.885Z,11.30
2019-05-10T18:42:11.779Z,11.20
2019-05-10T18:44:52.056Z,11.30
2019-05-10T18:47:22.823Z,11.30
2019-05-10T18:49:59.072Z,11.30
2019-05-10T18:52:34.077Z,11.30
2019-05-10T18:55:10.497Z,11.30
2019-05-10T18:57:50.168Z,11.30
2019-05-10T19:00:23.081Z,11.40
2019-05-10T19:02:57.555Z,11.50
2019-05-10T19:05:33.193Z,11.50
2019-05-10T19:08:08.262Z,11.50
2019-05-10T19:10:44.525Z,11.60
2019-05-10T19:13:19.627Z,11.60
2019-05-10T19:15:58.124Z,11.60
2019-05-10T19:18:31.453Z,11.70
2019-05-10T19:21:07.028Z,11.70
2019-05-10T19:23:41.839Z,11.70
2019-05-10T19:26:17.761Z,11.70
2019-05-10T19:29:12.076Z,11.70
2019-05-10T19:31:47.418Z,11.80
2019-05-10T19:34:22.480Z,11.80
2019-05-10T19:36:57.378Z,11.80
2019-05-10T19:39:32.350Z,11.80
2019-05-10T19:42:08.423Z,11.80
2019-05-10T19:44:43.251Z,11.90
2019-05-10T19:47:31.187Z,11.90
2019-05-10T19:50:07.107Z,11.90
2019-05-10T19:52:42.260Z,11.90
2019-05-10T19:55:19.382Z,12.00
2019-05-10T19:57:54.792Z,12.00
2019-05-10T20:00:29.609Z,12.00
2019-05-10T20:03:05.360Z,12.00
2019-05-10T20:05:40.401Z,12.00
2019-05-10T20:08:15.603Z,12.00
2019-05-10T20:10:50.332Z,12.00
2019-05-10T20:13:25.691Z,12.10
2019-05-10T20:16:01.442Z,12.10
2019-05-10T20:18:36.757Z,12.10
2019-05-10T20:21:11.849Z,12.10
2019-05-10T20:23:47.443Z,12.20
2019-05-10T20:26:22.531Z,12.20
2019-05-10T20:28:57.642Z,12.20
2019-05-10T20:31:32.276Z,12.30
2019-05-10T20:34:23.897Z,12.30
2019-05-10T20:36:56.001Z,12.30
2019-05-10T20:39:31.070Z,12.20
2019-05-10T20:42:19.038Z,12.30
2019-05-10T20:45:06.670Z,12.20
2019-05-10T20:47:30.626Z,12.30
2019-05-10T20:50:05.735Z,12.30
2019-05-10T20:52:40.929Z,12.30
2019-05-10T20:55:16.211Z,12.30
2019-05-10T20:57:50.905Z,12.30
2019-05-10T21:00:26.568Z,12.30
2019-05-10T21:03:01.346Z,12.30
2019-05-10T21:05:37.337Z,12.20
2019-05-10T21:08:16.932Z,12.30
2019-05-10T21:10:48.462Z,12.30
2019-05-10T21:13:23.396Z,12.40
2019-05-10T21:15:58.625Z,12.50
2019-05-10T21:18:33.476Z,12.50
2019-05-10T21:21:08.555Z,12.50
2019-05-10T21:23:43.471Z,12.50
2019-05-10T21:26:18.464Z,12.50
2019-05-10T21:28:53.691Z,12.60
2019-05-10T21:31:29.343Z,12.70
2019-05-10T21:34:09.589Z,12.70
2019-05-10T21:36:40.765Z,12.70
2019-05-10T21:39:15.477Z,12.80
2019-05-10T21:41:50.822Z,12.90
2019-05-10T21:44:45.203Z,12.90
2019-05-10T21:47:20.698Z,13.00
2019-05-10T21:49:55.637Z,13.10
2019-05-10T21:52:31.453Z,13.20
2019-05-10T21:55:06.446Z,13.30
2019-05-10T21:57:41.440Z,13.40
2019-05-10T22:00:18.177Z,13.50
2019-05-10T22:02:54.177Z,13.50
2019-05-10T22:05:29.025Z,13.60
2019-05-10T22:08:04.356Z,13.70
2019-05-10T22:10:39.782Z,13.80
2019-05-10T22:13:15.411Z,13.90
2019-05-10T22:15:50.298Z,14.00
2019-05-10T22:18:25.509Z,14.00
2019-05-10T22:21:00.492Z,14.10
2019-05-10T22:23:36.390Z,14.10
2019-05-10T22:26:11.256Z,14.20
2019-05-10T22:28:46.607Z,14.40
2019-05-10T22:31:21.405Z,14.50
2019-05-10T22:33:56.690Z,14.60
2019-05-10T22:36:31.464Z,14.60
2019-05-10T22:39:08.053Z,14.70
2019-05-10T22:41:43.193Z,14.70
2019-05-10T22:44:18.824Z,14.70
2019-05-10T22:46:53.876Z,14.80
2019-05-10T22:49:29.256Z,14.80
2019-05-10T22:52:03.943Z,14.80
2019-05-10T22:54:39.512Z,15.00
2019-05-10T22:57:14.553Z,15.10
2019-05-10T22:59:49.951Z,15.30
2019-05-10T23:02:46.360Z,15.40
2019-05-10T23:05:20.746Z,15.50
2019-05-10T23:07:55.944Z,15.60
2019-05-10T23:10:31.162Z,15.60
2019-05-10T23:13:06.277Z,15.80
2019-05-10T23:15:42.175Z,15.80
2019-05-10T23:18:16.926Z,15.90
2019-05-10T23:20:53.478Z,16.10
2019-05-10T23:23:28.428Z,16.20
2019-05-10T23:26:03.723Z,16.20
2019-05-10T23:28:41.552Z,16.20
2019-05-10T23:31:16.976Z,16.30
2019-05-10T23:33:52.033Z,16.30
2019-05-10T23:36:28.271Z,16.30
2019-05-10T23:39:03.875Z,16.30
2019-05-10T23:41:39.400Z,16.40
2019-05-10T23:44:14.326Z,16.40
2019-05-10T23:46:49.414Z,16.40
2019-05-10T23:49:23.993Z,16.50
2019-05-10T23:51:59.441Z,16.60
2019-05-10T23:54:34.381Z,16.60
2019-05-10T23:57:09.919Z,16.80
2019-05-10T23:59:45.367Z,17.00
